Time;durP1;ratioP1;P1;durP2;ratioP2;P2;SDS_P1;SDS_P2;PMS_P1;PMS_P2;Temp;Humidity;BMP_temperature;BMP_pressure;BME280_temperature;BME280_humidity;BME280_pressure;Samples;Min_cycle;Max_cycle;Signal;HPM_P1;HPM_P2
2021/05/09 00:01:41;;;;;;;18.53;11.33;;;;;;;5.16;65.34;100518.31;128004;1098;100789;-85
2021/05/09 00:04:28;;;;;;;17.95;11.30;;;;;;;5.18;65.18;100515.72;128204;1098;100989;-85
2021/05/09 00:07:15;;;;;;;17.43;11.70;;;;;;;5.20;65.21;100509.67;128132;1098;101480;-84
2021/05/09 00:10:09;;;;;;;19.88;11.43;;;;;;;5.24;65.00;100515.70;128197;1098;100815;-85
2021/05/09 00:12:57;;;;;;;18.67;11.93;;;;;;;5.23;65.03;100513.98;127985;1098;100811;-84
2021/05/09 00:15:44;;;;;;;19.80;12.13;;;;;;;5.24;64.69;100511.39;128230;1098;100723;-84
2021/05/09 00:18:31;;;;;;;18.85;11.40;;;;;;;5.25;64.93;100510.52;128219;1098;101445;-85
2021/05/09 00:21:18;;;;;;;20.13;11.95;;;;;;;5.26;64.29;100507.06;128210;1098;101091;-85
2021/05/09 00:24:05;;;;;;;18.13;11.88;;;;;;;5.26;64.87;100509.66;128205;1098;101088;-84
2021/05/09 00:26:53;;;;;;;20.05;12.35;;;;;;;5.26;64.98;100509.66;128227;1098;100802;-84
2021/05/09 00:29:40;;;;;;;18.58;11.93;;;;;;;5.27;64.72;100506.19;128104;1098;100905;-84
2021/05/09 00:32:27;;;;;;;;;;;;;;;5.29;64.64;100504.45;128035;1098;101797;-85
2021/05/09 00:35:16;;;;;;;20.85;12.15;;;;;;;5.29;64.60;100508.77;128237;1098;101035;-84
2021/05/09 00:38:03;;;;;;;19.43;11.93;;;;;;;5.30;64.63;100511.34;128144;1098;100774;-84
2021/05/09 00:40:54;;;;;;;20.57;12.07;;;;;;;5.30;64.51;100506.17;128209;1098;100715;-84
2021/05/09 00:43:41;;;;;;;22.87;12.10;;;;;;;5.31;64.61;100519.95;128212;1098;103547;-84
2021/05/09 00:46:28;;;;;;;20.37;11.27;;;;;;;5.32;64.29;100513.91;128259;1098;101660;-84
2021/05/09 00:49:15;;;;;;;23.70;12.55;;;;;;;5.31;64.22;100514.78;127962;1099;100836;-84
2021/05/09 00:52:04;;;;;;;26.40;12.43;;;;;;;5.29;63.85;100519.97;128255;1098;100811;-84
2021/05/09 00:55:04;;;;;;;19.93;13.30;;;;;;;5.29;64.03;100519.11;127994;1098;100877;-84
2021/05/09 00:57:53;;;;;;;19.50;12.67;;;;;;;5.28;63.80;100514.81;128131;1098;101260;-84
2021/05/09 01:00:40;;;;;;;20.73;12.73;;;;;;;5.26;63.54;100508.80;127986;1098;100841;-84
2021/05/09 01:03:29;;;;;;;24.57;13.90;;;;;;;5.23;63.55;100509.67;128155;1098;100766;-84
2021/05/09 01:06:17;;;;;;;26.40;15.00;;;;;;;5.20;63.57;100504.50;128111;1098;100779;-84
2021/05/09 01:09:05;;;;;;;26.40;15.63;;;;;;;5.17;63.49;100504.52;128226;1098;101440;-84
2021/05/09 01:11:52;;;;;;;24.60;14.70;;;;;;;5.13;63.48;100500.24;128256;1098;100700;-84
2021/05/09 01:14:40;;;;;;;24.63;14.40;;;;;;;5.10;63.48;100493.37;128211;1098;101183;-84
2021/05/09 01:17:27;;;;;;;26.43;15.03;;;;;;;5.06;63.74;100499.43;128003;1099;101113;-84
2021/05/09 01:20:14;;;;;;;;;;;;;;;5.02;63.59;100502.88;128220;1098;101082;-84
2021/05/09 01:23:03;;;;;;;25.88;14.80;;;;;;;4.98;63.54;100500.32;128244;1098;100722;-84
2021/05/09 01:25:51;;;;;;;26.63;15.57;;;;;;;4.93;63.75;100499.50;128189;1098;100869;-84
2021/05/09 01:28:38;;;;;;;27.37;16.27;;;;;;;4.88;63.72;100499.53;127988;1099;102050;-84
2021/05/09 01:31:25;;;;;;;27.45;16.38;;;;;;;4.83;63.84;100515.03;128182;1098;101369;-84
2021/05/09 01:34:17;;;;;;;29.10;16.87;;;;;;;4.81;63.76;100513.33;128131;1098;100735;-84
2021/05/09 01:37:05;;;;;;;;;;;;;;;4.75;63.91;100521.11;128030;1099;100694;-84
2021/05/09 01:39:52;;;;;;;29.60;17.97;;;;;;;4.69;63.88;100522.01;128190;1098;100795;-84
2021/05/09 01:42:40;;;;;;;32.43;18.63;;;;;;;4.66;64.20;100526.30;128047;1098;101675;-84
2021/05/09 01:45:28;;;;;;;30.93;17.73;;;;;;;4.61;63.99;100530.63;128072;1098;102559;-84
2021/05/09 01:48:15;;;;;;;33.90;18.67;;;;;;;4.58;63.96;100538.39;128030;1098;100955;-84
2021/05/09 01:51:02;;;;;;;29.20;18.43;;;;;;;4.53;64.02;100538.42;128066;1098;100814;-84
2021/05/09 01:53:50;;;;;;;30.20;18.70;;;;;;;4.50;64.32;100538.44;128203;1098;100757;-84
2021/05/09 01:56:37;;;;;;;30.18;19.18;;;;;;;4.46;64.02;100544.45;128021;1098;101663;-85
2021/05/09 01:59:24;;;;;;;32.43;18.40;;;;;;;4.42;64.22;100547.91;128030;1098;100933;-84
2021/05/09 02:02:12;;;;;;;35.23;20.03;;;;;;;4.37;64.45;100547.06;128258;1098;100802;-84
2021/05/09 02:05:06;;;;;;;29.93;18.63;;;;;;;4.32;64.43;100535.89;128051;1098;104101;-83
2021/05/09 02:07:54;;;;;;;30.13;19.77;;;;;;;4.29;64.48;100546.20;127956;1101;102190;-84
2021/05/09 02:10:42;;;;;;;30.27;18.80;;;;;;;4.25;64.42;100543.63;128044;1098;101196;-84
2021/05/09 02:13:29;;;;;;;35.03;19.93;;;;;;;4.24;64.79;100548.80;128045;1098;101001;-84
2021/05/09 02:16:43;;;;;;;34.23;20.67;;;;;;;4.22;64.77;100550.53;128208;1098;100714;-84
2021/05/09 02:19:32;;;;;;;35.70;20.73;;;;;;;4.19;64.83;100546.23;128249;1098;100995;-84
2021/05/09 02:22:19;;;;;;;34.20;20.43;;;;;;;4.17;64.76;100542.80;128259;1098;100690;-83
2021/05/09 02:25:08;;;;;;;31.90;20.27;;;;;;;4.16;64.75;100553.98;128244;1097;100826;-83
2021/05/09 02:27:57;;;;;;;34.37;21.33;;;;;;;4.14;64.79;100547.97;128012;1098;100784;-83
2021/05/09 02:30:44;;;;;;;31.17;20.73;;;;;;;4.13;64.81;100541.09;128230;1098;100796;-83
2021/05/09 02:33:32;;;;;;;37.37;20.60;;;;;;;4.14;65.04;100552.28;127942;1098;101774;-83
2021/05/09 02:36:19;;;;;;;30.93;20.52;;;;;;;4.11;64.95;100550.53;128040;1098;100731;-84
2021/05/09 02:39:07;;;;;;;37.83;21.47;;;;;;;4.09;65.12;100549.67;128011;1098;102116;-83
2021/05/09 02:41:55;;;;;;;36.30;21.67;;;;;;;4.09;65.13;100549.67;127998;1098;101017;-83
2021/05/09 02:44:42;;;;;;;;;;;;;;;4.08;65.11;100553.12;128252;1098;100984;-83
2021/05/09 02:47:29;;;;;;;38.17;21.40;;;;;;;4.05;65.54;100560.87;128071;1098;100666;-83
2021/05/09 02:50:20;;;;;;;34.07;21.17;;;;;;;4.03;65.46;100544.53;128049;1098;102656;-83
2021/05/09 02:53:08;;;;;;;34.07;21.10;;;;;;;4.02;65.58;100542.81;128037;1098;101829;-83
2021/05/09 02:55:55;;;;;;;36.60;21.50;;;;;;;4.02;65.58;100554.86;128017;1099;100791;-84
2021/05/09 02:58:42;;;;;;;37.98;21.90;;;;;;;4.00;65.56;100564.33;128223;1098;100762;-83
2021/05/09 03:01:29;;;;;;;32.03;20.50;;;;;;;3.98;65.83;100560.89;128043;1098;100853;-83
2021/05/09 03:04:17;;;;;;;29.77;20.87;;;;;;;3.93;65.99;100566.02;128209;1098;100769;-83
2021/05/09 03:07:04;;;;;;;33.18;21.50;;;;;;;3.91;66.17;100568.61;128028;1098;102478;-83
2021/05/09 03:09:51;;;;;;;;;;;;;;;3.90;66.43;100571.19;128152;1098;100841;-83
2021/05/09 03:12:39;;;;;;;37.13;21.30;;;;;;;3.88;66.38;100580.66;128260;1098;101178;-83
2021/05/09 03:15:26;;;;;;;33.47;22.17;;;;;;;3.87;66.43;100566.89;128210;1098;100770;-83
2021/05/09 03:18:13;;;;;;;31.83;20.98;;;;;;;3.88;66.20;100578.08;128280;1098;101166;-83
2021/05/09 03:21:00;;;;;;;31.83;21.53;;;;;;;3.91;66.33;100578.07;128023;1098;100812;-83
2021/05/09 03:23:47;;;;;;;33.53;21.57;;;;;;;3.94;66.31;100575.48;128027;1098;100776;-83
2021/05/09 03:26:35;;;;;;;31.57;21.13;;;;;;;3.97;66.37;100575.52;128215;1098;101239;-83
2021/05/09 03:29:23;;;;;;;34.17;21.80;;;;;;;4.00;66.21;100572.06;128089;1098;100654;-83
2021/05/09 03:32:10;;;;;;;34.58;20.90;;;;;;;4.04;65.98;100571.20;128052;1098;100751;-83
2021/05/09 03:34:58;;;;;;;31.77;20.90;;;;;;;4.07;66.17;100578.94;128022;1099;101984;-83
2021/05/09 03:37:44;;;;;;;28.18;20.03;;;;;;;4.10;66.36;100569.45;128191;1098;100665;-83
2021/05/09 03:40:32;;;;;;;31.85;21.50;;;;;;;4.11;66.26;100571.18;128034;1098;101017;-83
2021/05/09 03:43:19;;;;;;;37.93;23.40;;;;;;;4.14;66.17;100568.63;128254;1098;100818;-83
2021/05/09 03:46:06;;;;;;;33.13;22.00;;;;;;;4.19;66.49;100564.30;128115;1098;100702;-83
2021/05/09 03:48:53;;;;;;;38.48;21.93;;;;;;;4.24;65.99;100569.45;128253;1098;101020;-83
2021/05/09 03:51:40;;;;;;;31.80;21.90;;;;;;;4.29;66.34;100567.72;127991;1098;100852;-83
2021/05/09 03:54:27;;;;;;;35.27;21.23;;;;;;;4.36;66.24;100568.59;128253;1098;101034;-83
2021/05/09 03:57:15;;;;;;;31.20;21.53;;;;;;;4.41;66.08;100569.43;128024;1098;100932;-83
2021/05/09 04:00:04;;;;;;;32.08;20.55;;;;;;;4.46;65.94;100575.44;128048;1099;100952;-83
2021/05/09 04:03:00;;;;;;;29.93;19.93;;;;;;;4.51;66.12;100568.56;128092;1098;100808;-84
2021/05/09 04:05:48;;;;;;;27.23;18.13;;;;;;;4.59;65.55;100565.95;128183;1098;100724;-84
2021/05/09 04:08:36;;;;;;;33.57;19.97;;;;;;;4.66;65.71;100558.16;128179;1098;101020;-83
2021/05/09 04:11:24;;;;;;;27.25;18.55;;;;;;;4.75;65.24;100560.73;128109;1098;101095;-83
2021/05/09 04:14:10;;;;;;;27.88;19.20;;;;;;;4.82;65.41;100558.97;128052;1098;100687;-83
2021/05/09 04:16:57;;;;;;;27.83;18.25;;;;;;;4.91;65.30;100552.92;128139;1098;102057;-84
2021/05/09 04:19:44;;;;;;;;;;;;;;;5.01;64.97;100549.41;128049;1098;100849;-83
2021/05/09 04:22:31;;;;;;;27.17;17.47;;;;;;;5.09;64.50;100542.50;128054;1098;100979;-83
2021/05/09 04:25:19;;;;;;;22.17;15.30;;;;;;;5.21;64.72;100547.62;128214;1098;100733;-83
2021/05/09 04:28:07;;;;;;;25.43;16.93;;;;;;;5.30;64.50;100542.38;128240;1098;101371;-85
2021/05/09 04:30:54;;;;;;;25.40;17.80;;;;;;;5.42;64.54;100542.31;128151;1098;101995;-84
2021/05/09 04:33:43;;;;;;;24.07;16.23;;;;;;;5.56;63.88;100556.86;128020;1098;100825;-84
2021/05/09 04:36:30;;;;;;;20.60;15.33;;;;;;;5.68;63.79;100549.88;128074;1098;100828;-84
2021/05/09 04:39:21;;;;;;;24.37;15.77;;;;;;;5.81;63.38;100557.56;128261;1098;100739;-84
2021/05/09 04:42:08;;;;;;;23.28;15.63;;;;;;;5.92;63.33;100548.84;128077;1098;100693;-84
2021/05/09 04:44:55;;;;;;;21.00;14.88;;;;;;;6.04;62.75;100543.58;128244;1098;101579;-84
2021/05/09 04:47:43;;;;;;;23.77;14.67;;;;;;;6.19;62.37;100542.58;128172;1098;101846;-84
2021/05/09 04:50:31;;;;;;;21.77;13.93;;;;;;;6.34;62.38;100544.17;128233;1098;100799;-84
2021/05/09 04:53:30;;;;;;;22.00;13.30;;;;;;;6.54;61.92;100547.41;128144;1098;100750;-84
2021/05/09 04:56:18;;;;;;;18.93;13.20;;;;;;;6.76;61.19;100540.23;128053;1098;100958;-84
2021/05/09 04:59:05;;;;;;;17.67;12.63;;;;;;;7.02;60.69;100552.90;128222;1098;100749;-83
2021/05/09 05:01:51;;;;;;;16.68;11.65;;;;;;;7.28;60.17;100548.20;128213;1098;101197;-84
2021/05/09 05:04:38;;;;;;;19.58;12.35;;;;;;;7.63;59.39;100546.84;128018;1098;100757;-83
2021/05/09 05:07:25;;;;;;;17.75;11.28;;;;;;;8.48;57.35;100549.77;128239;1098;100719;-83
2021/05/09 05:10:13;;;;;;;;;;;;;;;10.40;56.16;100536.72;128052;1098;101066;-84
2021/05/09 05:13:00;;;;;;;16.60;10.10;;;;;;;12.54;53.71;100534.39;128007;1098;101934;-84
2021/05/09 05:15:49;;;;;;;14.43;9.60;;;;;;;14.46;48.68;100526.82;128066;1099;100866;-84
2021/05/09 05:18:37;;;;;;;14.67;9.30;;;;;;;15.83;45.42;100519.59;128054;1098;101079;-84
2021/05/09 05:21:26;;;;;;;14.57;9.17;;;;;;;17.14;43.60;100525.91;128255;1098;100812;-84
2021/05/09 05:24:17;;;;;;;15.20;9.50;;;;;;;18.04;37.90;100520.81;128192;1098;101032;-84
2021/05/09 05:27:04;;;;;;;13.70;9.47;;;;;;;18.85;38.28;100523.00;128255;1098;100740;-84
2021/05/09 05:29:51;;;;;;;13.85;9.20;;;;;;;19.73;37.17;100511.22;128143;1098;101151;-85
2021/05/09 05:32:40;;;;;;;;;;;;;;;20.67;35.46;100501.32;128287;1098;100587;-84
2021/05/09 05:35:29;;;;;;;11.70;8.33;;;;;;;21.50;33.38;100506.85;128029;1098;100716;-84
2021/05/09 05:38:15;;;;;;;11.63;7.63;;;;;;;22.24;30.37;100493.27;128266;1098;100863;-84
2021/05/09 05:41:03;;;;;;;10.40;7.70;;;;;;;22.75;31.50;100500.82;128219;1098;101433;-84
2021/05/09 05:43:50;;;;;;;;;;;;;;;23.36;30.54;100498.62;128029;1098;100757;-84
2021/05/09 05:46:37;;;;;;;9.00;6.77;;;;;;;23.79;29.47;100495.09;128080;1098;103253;-84
2021/05/09 05:49:24;;;;;;;10.97;6.90;;;;;;;24.06;26.47;100502.61;128223;1098;100793;-84
2021/05/09 05:52:11;;;;;;;;;;;;;;;24.26;27.02;100495.59;128077;1098;100786;-85
2021/05/09 05:54:59;;;;;;;8.93;6.83;;;;;;;24.80;27.37;100494.48;128268;1098;101031;-85
2021/05/09 05:57:46;;;;;;;9.33;6.67;;;;;;;25.09;26.92;100484.77;128221;1097;100894;-84
2021/05/09 06:00:33;;;;;;;8.87;6.30;;;;;;;24.86;25.12;100476.11;128227;1098;101212;-85
2021/05/09 06:03:22;;;;;;;8.48;6.63;;;;;;;24.67;24.15;100479.55;128049;1098;100726;-84
2021/05/09 06:06:09;;;;;;;10.73;6.70;;;;;;;24.67;23.80;100484.88;128069;1098;100664;-84
2021/05/09 06:08:57;;;;;;;9.47;6.67;;;;;;;24.81;23.41;100485.51;128029;1099;101168;-84
2021/05/09 06:11:44;;;;;;;8.37;6.17;;;;;;;24.85;22.41;100477.09;128047;1098;100754;-85
2021/05/09 06:14:32;;;;;;;10.17;6.40;;;;;;;24.92;23.51;100485.39;128204;1098;100977;-85
2021/05/09 06:17:20;;;;;;;10.03;6.90;;;;;;;25.26;22.62;100475.25;128046;1098;100760;-85
2021/05/09 06:20:08;;;;;;;8.37;6.23;;;;;;;25.59;22.89;100464.19;128127;1098;100769;-84
2021/05/09 06:23:04;;;;;;;8.93;6.50;;;;;;;25.63;21.33;100464.73;128239;1098;101484;-84
2021/05/09 06:25:51;;;;;;;10.83;6.37;;;;;;;25.48;21.27;100468.80;128102;1098;100848;-84
2021/05/09 06:28:38;;;;;;;10.70;6.33;;;;;;;25.48;19.76;100476.81;128101;1098;100785;-84
2021/05/09 06:31:25;;;;;;;9.43;6.17;;;;;;;25.65;21.34;100457.42;128124;1098;101086;-84
2021/05/09 06:34:16;;;;;;;7.43;6.00;;;;;;;25.58;20.70;100467.00;128066;1098;100752;-85
2021/05/09 06:37:04;;;;;;;8.00;5.80;;;;;;;25.51;21.07;100460.55;128225;1098;101454;-85
2021/05/09 06:39:52;;;;;;;7.17;6.10;;;;;;;25.26;19.31;100483.27;128233;1098;101197;-85
2021/05/09 06:42:38;;;;;;;9.47;5.80;;;;;;;25.30;20.90;100457.97;128232;1098;101270;-85
2021/05/09 06:45:29;;;;;;;;;;;;;;;25.67;20.85;100450.11;128211;1098;100870;-85
2021/05/09 06:48:33;;;;;;;8.00;5.93;;;;;;;25.88;21.12;100450.02;128275;1098;100959;-85
2021/05/09 06:51:20;;;;;;;8.93;6.10;;;;;;;26.25;20.37;100441.21;128216;1098;100871;-84
2021/05/09 06:54:08;;;;;;;8.67;6.80;;;;;;;26.58;20.38;100448.73;128196;1098;100944;-85
2021/05/09 06:56:55;;;;;;;7.90;6.17;;;;;;;26.58;19.37;100464.78;128237;1098;100795;-85
2021/05/09 06:59:42;;;;;;;8.23;5.87;;;;;;;26.01;18.37;100473.74;127982;1099;100778;-85
2021/05/09 07:02:29;;;;;;;8.43;6.30;;;;;;;25.70;19.18;100449.05;128045;1098;100949;-84
2021/05/09 07:05:17;;;;;;;10.07;6.23;;;;;;;25.62;18.89;100476.41;128024;1098;102735;-85
2021/05/09 07:08:04;;;;;;;;;;;;;;;25.41;18.66;100462.34;128240;1098;100855;-85
2021/05/09 07:10:52;;;;;;;9.28;5.98;;;;;;;25.09;19.49;100447.41;128237;1098;100863;-85
2021/05/09 07:13:39;;;;;;;9.30;6.07;;;;;;;25.08;19.43;100453.72;128224;1097;101012;-85
2021/05/09 07:16:27;;;;;;;7.85;5.00;;;;;;;25.49;19.46;100449.13;128237;1098;100838;-84
2021/05/09 07:19:14;;;;;;;9.53;5.63;;;;;;;26.04;19.15;100450.27;128028;1098;102397;-84
2021/05/09 07:22:07;;;;;;;7.13;5.20;;;;;;;26.27;19.05;100442.75;128041;1097;101241;-84
2021/05/09 07:24:54;;;;;;;8.30;5.50;;;;;;;25.94;18.16;100459.28;128090;1098;101150;-84
2021/05/09 07:27:41;;;;;;;8.80;5.90;;;;;;;25.67;17.88;100462.63;128228;1098;100766;-85
2021/05/09 07:30:29;;;;;;;7.53;5.17;;;;;;;25.40;18.37;100455.32;128044;1098;100726;-85
2021/05/09 07:33:17;;;;;;;9.50;6.30;;;;;;;25.32;18.66;100457.86;128029;1098;100848;-85
2021/05/09 07:36:04;;;;;;;10.23;5.93;;;;;;;25.43;18.92;100455.88;128230;1098;100869;-85
2021/05/09 07:38:51;;;;;;;9.73;5.10;;;;;;;25.59;19.55;100445.48;128253;1098;101049;-84
2021/05/09 07:41:38;;;;;;;8.50;5.18;;;;;;;25.96;18.28;100457.30;128251;1097;100927;-84
2021/05/09 07:44:25;;;;;;;9.00;5.58;;;;;;;26.08;18.61;100448.14;128240;1098;101255;-84
2021/05/09 07:47:13;;;;;;;9.50;5.63;;;;;;;26.04;18.33;100434.23;128039;1098;101680;-84
2021/05/09 07:50:00;;;;;;;7.27;5.53;;;;;;;25.85;18.05;100455.61;128230;1098;100814;-84
2021/05/09 07:52:48;;;;;;;;;;;;;;;25.81;18.90;100443.53;128068;1098;100681;-84
2021/05/09 07:55:35;;;;;;;8.65;5.60;;;;;;;25.53;18.62;100456.74;128224;1098;100979;-84
2021/05/09 07:58:23;;;;;;;8.00;5.30;;;;;;;25.25;18.28;100437.03;128205;1098;100761;-84
2021/05/09 08:01:09;;;;;;;;;;;;;;;25.20;18.85;100433.11;128019;1098;101507;-84
2021/05/09 08:03:56;;;;;;;8.83;5.73;;;;;;;24.96;18.46;100430.80;128018;1098;101201;-84
2021/05/09 08:06:46;;;;;;;6.60;5.47;;;;;;;24.56;18.35;100417.45;128246;1098;100961;-84
2021/05/09 08:09:33;;;;;;;;;;;;;;;24.48;19.76;100422.63;128055;1098;100767;-84
2021/05/09 08:12:20;;;;;;;6.37;4.43;;;;;;;24.64;19.96;100423.81;128264;1098;100734;-84
2021/05/09 08:15:09;;;;;;;7.33;4.27;;;;;;;24.98;20.56;100416.33;128214;1098;100825;-84
2021/05/09 08:17:56;;;;;;;6.87;4.83;;;;;;;25.43;19.18;100417.66;128084;1098;100835;-84
2021/05/09 08:20:44;;;;;;;6.30;4.60;;;;;;;25.39;18.98;100422.44;128201;1098;100939;-84
2021/05/09 08:23:33;;;;;;;;;;;;;;;25.21;18.34;100430.30;128072;1098;101205;-84
2021/05/09 08:26:22;;;;;;;5.33;4.63;;;;;;;24.87;17.78;100427.11;128180;1098;100747;-84
2021/05/09 08:29:10;;;;;;;6.13;5.00;;;;;;;24.25;18.43;100405.95;128050;1099;101514;-84
2021/05/09 08:31:57;;;;;;;5.37;4.13;;;;;;;23.39;19.82;100399.03;128204;1098;100837;-84
2021/05/09 08:34:44;;;;;;;6.97;4.47;;;;;;;22.74;20.13;100426.49;128253;1098;100838;-84
2021/05/09 08:37:31;;;;;;;;;;;;;;;22.47;20.86;100411.78;128240;1098;100916;-84
2021/05/09 08:40:18;;;;;;;5.70;4.30;;;;;;;22.12;21.90;100393.30;128293;1098;100790;-84
2021/05/09 08:43:05;;;;;;;;;;;;;;;22.35;22.70;100399.45;128259;1098;101257;-84
2021/05/09 08:45:52;;;;;;;6.40;4.63;;;;;;;22.47;22.07;100410.94;128200;1098;100837;-84
2021/05/09 08:48:40;;;;;;;6.33;4.53;;;;;;;22.50;22.29;100397.41;128191;1098;100730;-84
2021/05/09 08:51:28;;;;;;;6.23;4.13;;;;;;;22.82;22.28;100409.00;128024;1100;100765;-84
2021/05/09 08:54:14;;;;;;;4.87;4.37;;;;;;;22.87;21.17;100446.70;128259;1098;100939;-84
2021/05/09 08:57:03;;;;;;;5.35;4.15;;;;;;;22.71;20.88;100424.09;128216;1098;101486;-84
2021/05/09 08:59:50;;;;;;;6.77;4.63;;;;;;;22.63;20.73;100415.89;128015;1098;101249;-84
2021/05/09 09:02:41;;;;;;;7.03;4.40;;;;;;;22.58;20.67;100416.23;128021;1098;101176;-84
2021/05/09 09:05:40;;;;;;;5.47;4.37;;;;;;;22.31;21.09;100406.83;128216;1098;100713;-84
2021/05/09 09:08:28;;;;;;;5.37;4.30;;;;;;;22.28;20.99;100392.95;128238;1098;101139;-84
2021/05/09 09:11:27;;;;;;;5.35;3.90;;;;;;;22.41;21.80;100385.67;128276;1098;101226;-84
2021/05/09 09:14:14;;;;;;;6.93;4.40;;;;;;;22.48;20.80;100396.69;128215;1098;100921;-84
2021/05/09 09:17:11;;;;;;;6.30;4.77;;;;;;;22.36;21.73;100395.83;128052;1098;101083;-84
2021/05/09 09:20:21;;;;;;;6.77;4.13;;;;;;;22.20;21.93;100385.55;128211;1098;100800;-84
2021/05/09 09:23:10;;;;;;;6.37;4.30;;;;;;;22.24;22.05;100384.34;128086;1098;100709;-84
2021/05/09 09:25:57;;;;;;;6.50;3.95;;;;;;;22.34;22.32;100373.01;128064;1098;100837;-84
2021/05/09 09:28:44;;;;;;;5.05;4.13;;;;;;;22.24;22.02;100410.91;128203;1098;101362;-84
2021/05/09 09:31:43;;;;;;;4.35;3.83;;;;;;;22.10;22.50;100397.04;128270;1098;100833;-84
2021/05/09 09:34:50;;;;;;;5.40;3.83;;;;;;;22.15;23.33;100394.86;128257;1098;101223;-84
2021/05/09 09:37:37;;;;;;;5.17;3.47;;;;;;;22.29;23.39;100373.38;128223;1098;100690;-84
2021/05/09 09:40:24;;;;;;;5.58;3.65;;;;;;;22.44;22.97;100385.45;128053;1099;101571;-84
2021/05/09 09:43:18;;;;;;;5.30;3.60;;;;;;;22.43;22.92;100375.77;128029;1098;100805;-84
2021/05/09 09:46:24;;;;;;;5.60;3.87;;;;;;;22.64;22.25;100385.67;128058;1098;100735;-84
2021/05/09 09:49:27;;;;;;;5.53;3.60;;;;;;;22.66;22.36;100387.24;128176;1098;100957;-84
2021/05/09 09:52:14;;;;;;;7.23;4.47;;;;;;;22.77;22.41;100381.04;128246;1098;100874;-84
2021/05/09 09:55:12;;;;;;;4.58;3.43;;;;;;;22.75;22.77;100367.88;128046;1098;101078;-84
2021/05/09 09:58:05;;;;;;;5.27;3.60;;;;;;;22.84;22.25;100356.53;128224;1098;100956;-84
2021/05/09 10:00:52;;;;;;;9.93;3.60;;;;;;;22.67;22.25;100378.30;128016;1100;100884;-84
2021/05/09 10:03:40;;;;;;;;;;;;;;;22.40;22.39;100348.59;128056;1098;101057;-84
2021/05/09 10:06:28;;;;;;;5.10;3.30;;;;;;;22.37;23.73;100354.16;128172;1098;100781;-84
2021/05/09 10:09:17;;;;;;;4.73;3.60;;;;;;;22.82;22.29;100377.09;128031;1098;102109;-84
2021/05/09 10:12:05;;;;;;;3.90;3.37;;;;;;;22.87;23.12;100355.44;128234;1098;100710;-84
2021/05/09 10:14:53;;;;;;;5.10;3.40;;;;;;;22.88;22.46;100352.66;128192;1098;100875;-84
2021/05/09 10:17:42;;;;;;;4.57;2.83;;;;;;;22.96;22.72;100351.16;128221;1098;100919;-84
2021/05/09 10:20:29;;;;;;;4.73;3.90;;;;;;;22.59;22.47;100362.94;128097;1098;100817;-84
2021/05/09 10:23:18;;;;;;;;;;;;;;;22.41;22.77;100369.73;128297;1098;102432;-84
2021/05/09 10:26:05;;;;;;;4.80;2.87;;;;;;;22.09;23.45;100372.29;128218;1098;101038;-84
2021/05/09 10:28:52;;;;;;;4.20;3.28;;;;;;;22.00;23.52;100355.21;128056;1098;100718;-84
2021/05/09 10:31:39;;;;;;;6.13;3.70;;;;;;;21.79;23.76;100348.07;128032;1098;100798;-84
2021/05/09 10:35:00;;;;;;;5.60;3.90;;;;;;;21.59;23.69;100355.75;128234;1098;100785;-84
2021/05/09 10:37:51;;;;;;;6.50;3.57;;;;;;;21.36;24.01;100332.75;128030;1098;101468;-84
2021/05/09 10:40:42;;;;;;;3.73;3.13;;;;;;;21.40;24.98;100342.19;128223;1098;100744;-84
2021/05/09 10:43:30;;;;;;;5.23;3.77;;;;;;;21.31;23.79;100374.70;128082;1098;100765;-84
2021/05/09 10:46:17;;;;;;;5.30;3.60;;;;;;;21.03;25.23;100342.27;128019;1098;100773;-84
2021/05/09 10:49:11;;;;;;;5.53;3.75;;;;;;;20.75;25.01;100343.43;128046;1099;101085;-83
2021/05/09 10:52:18;;;;;;;4.87;3.10;;;;;;;20.62;26.02;100339.13;128024;1098;101049;-84
2021/05/09 10:55:25;;;;;;;4.53;3.10;;;;;;;20.45;25.60;100372.97;128208;1098;100965;-83
2021/05/09 10:58:16;;;;;;;4.93;2.93;;;;;;;20.25;25.33;100348.83;128258;1098;100772;-84
2021/05/09 11:01:06;;;;;;;4.60;3.30;;;;;;;20.10;26.03;100341.00;128174;1098;100738;-84
2021/05/09 11:04:07;;;;;;;4.60;3.33;;;;;;;20.15;27.03;100343.34;128262;1098;100700;-84
2021/05/09 11:06:54;;;;;;;3.70;3.10;;;;;;;20.21;26.87;100337.61;128193;1098;102314;-84
2021/05/09 11:09:43;;;;;;;3.60;2.93;;;;;;;20.21;26.88;100330.50;128041;1098;100876;-84
2021/05/09 11:13:03;;;;;;;3.87;2.93;;;;;;;20.24;26.48;100340.03;128029;1098;100712;-85
2021/05/09 11:16:17;;;;;;;4.10;3.40;;;;;;;19.97;26.14;100357.87;128188;1098;100723;-83
2021/05/09 11:19:13;;;;;;;4.00;3.00;;;;;;;19.63;27.25;100304.61;128067;1098;100712;-84
2021/05/09 11:22:01;;;;;;;3.90;2.97;;;;;;;19.68;27.16;100306.94;128210;1098;101457;-83
2021/05/09 11:24:55;;;;;;;5.53;2.70;;;;;;;19.55;27.06;100318.34;127986;1098;101006;-83
2021/05/09 11:27:46;;;;;;;3.53;2.50;;;;;;;19.45;27.24;100303.20;128023;1099;100850;-84
2021/05/09 11:30:37;;;;;;;3.70;2.40;;;;;;;19.45;26.97;100300.55;128229;1098;101315;-83
2021/05/09 11:33:49;;;;;;;3.43;2.47;;;;;;;19.64;27.25;100295.72;128250;1098;100990;-84
2021/05/09 11:36:38;;;;;;;3.07;2.30;;;;;;;19.78;26.69;100316.80;128236;1098;102952;-83
2021/05/09 11:39:28;;;;;;;4.27;2.43;;;;;;;19.78;26.54;100319.44;128221;1098;100944;-83
2021/05/09 11:42:17;;;;;;;3.20;2.27;;;;;;;19.72;26.40;100288.09;128232;1098;100815;-83
2021/05/09 11:45:06;;;;;;;3.87;2.60;;;;;;;19.64;26.57;100279.84;128049;1098;101118;-83
2021/05/09 11:47:53;;;;;;;2.50;2.30;;;;;;;19.61;26.17;100272.13;128055;1098;100725;-83
2021/05/09 11:50:41;;;;;;;5.23;2.70;;;;;;;19.66;27.27;100274.45;128260;1098;100759;-84
2021/05/09 11:53:28;;;;;;;4.87;2.67;;;;;;;19.84;27.48;100281.95;128031;1098;100774;-83
2021/05/09 11:56:17;;;;;;;3.30;2.53;;;;;;;19.93;26.73;100317.53;128251;1098;100763;-83
2021/05/09 11:59:05;;;;;;;2.83;2.40;;;;;;;19.85;26.69;100273.05;128107;1098;100694;-84
2021/05/09 12:01:52;;;;;;;2.88;2.28;;;;;;;19.73;26.91;100281.84;128075;1098;100848;-83
2021/05/09 12:04:40;;;;;;;4.60;2.15;;;;;;;19.73;27.65;100284.48;128215;1098;102034;-83
2021/05/09 12:07:30;;;;;;;4.77;2.53;;;;;;;19.81;27.43;100274.23;128060;1099;100834;-84
2021/05/09 12:11:04;;;;;;;4.07;2.10;;;;;;;19.79;27.05;100272.65;128062;1098;100855;-83
2021/05/09 12:14:53;;;;;;;2.93;2.10;;;;;;;19.80;27.52;100254.02;128144;1098;100681;-83
2021/05/09 12:17:46;;;;;;;4.97;2.30;;;;;;;19.81;27.45;100250.41;128227;1098;100875;-83
2021/05/09 12:20:42;;;;;;;2.83;2.20;;;;;;;19.77;26.95;100256.03;128263;1098;101815;-83
2021/05/09 12:23:29;;;;;;;2.90;2.10;;;;;;;19.71;26.78;100259.94;128233;1097;101057;-84
2021/05/09 12:26:17;;;;;;;3.93;2.10;;;;;;;19.73;27.10;100252.73;128205;1098;100766;-83
2021/05/09 12:29:18;;;;;;;2.85;2.00;;;;;;;19.74;27.59;100262.36;128035;1098;100793;-84
2021/05/09 12:32:19;;;;;;;2.63;1.90;;;;;;;19.72;27.35;100232.52;128258;1098;100867;-83
2021/05/09 12:35:08;;;;;;;3.03;2.03;;;;;;;19.75;27.03;100250.85;128223;1098;100731;-83
2021/05/09 12:37:56;;;;;;;5.20;2.00;;;;;;;19.73;26.61;100273.05;128205;1098;100655;-84
2021/05/09 12:40:44;;;;;;;2.63;1.97;;;;;;;19.62;27.03;100255.30;128244;1098;100758;-84
2021/05/09 12:43:56;;;;;;;3.68;2.18;;;;;;;19.58;27.21;100246.73;128277;1098;101098;-84
2021/05/09 12:46:47;;;;;;;2.70;2.13;;;;;;;19.50;26.81;100249.02;128052;1098;100715;-84
2021/05/09 12:49:37;;;;;;;2.80;1.90;;;;;;;19.43;27.43;100257.48;128074;1098;101382;-84
2021/05/09 12:52:25;;;;;;;3.13;2.03;;;;;;;19.46;27.66;100246.70;128213;1098;100725;-84